Time;durP1;ratioP1;P1;durP2;ratioP2;P2;SDS_P1;SDS_P2;PMS_P1;PMS_P2;Temp;Humidity;BMP_temperature;BMP_pressure;BME280_temperature;BME280_humidity;BME280_pressure;Samples;Min_cycle;Max_cycle;Signal;HPM_P1;HPM_P2
2022/07/14 00:01:06;;;;;;;2.58;1.52;;;;;;;;;;4751037;30;20459;-60
2022/07/14 00:03:35;;;;;;;5.88;1.40;;;;;;;;;;4750995;30;20044;-60
2022/07/14 00:06:03;;;;;;;3.83;1.52;;;;;;;;;;4750941;30;20048;-60
2022/07/14 00:08:30;;;;;;;3.35;1.60;;;;;;;;;;4750917;30;20098;-60
2022/07/14 00:10:57;;;;;;;4.18;1.58;;;;;;;;;;4750971;30;20052;-60
2022/07/14 00:13:24;;;;;;;5.70;1.38;;;;;;;;;;4751180;30;20040;-60
2022/07/14 00:15:53;;;;;;;4.30;1.75;;;;;;;;;;4750889;30;20053;-60
2022/07/14 00:18:21;;;;;;;9.48;1.88;;;;;;;;;;4752758;30;20052;-60
2022/07/14 00:20:49;;;;;;;1.83;1.40;;;;;;;;;;4754250;30;20076;-60
2022/07/14 00:23:16;;;;;;;4.40;1.63;;;;;;;;;;4754015;30;20055;-60
2022/07/14 00:25:46;;;;;;;6.07;1.55;;;;;;;;;;4753870;30;20048;-60
2022/07/14 00:28:13;;;;;;;4.88;1.60;;;;;;;;;;4754193;30;20478;-59
2022/07/14 00:30:41;;;;;;;3.03;1.65;;;;;;;;;;4744362;30;20045;-61
2022/07/14 00:33:08;;;;;;;3.53;2.03;;;;;;;;;;4736350;30;20053;-60
2022/07/14 00:35:35;;;;;;;3.33;1.45;;;;;;;;;;4736209;30;20107;-59
2022/07/14 00:38:05;;;;;;;4.95;2.13;;;;;;;;;;4720270;30;20528;-60
2022/07/14 00:40:32;;;;;;;3.22;1.73;;;;;;;;;;4720493;30;20510;-60
2022/07/14 00:43:00;;;;;;;2.10;1.50;;;;;;;;;;4736348;30;20044;-60
2022/07/14 00:45:27;;;;;;;2.28;1.42;;;;;;;;;;4736030;30;20083;-60
2022/07/14 00:47:55;;;;;;;2.08;1.38;;;;;;;;;;4736205;30;20052;-60
2022/07/14 00:50:22;;;;;;;3.60;1.98;;;;;;;;;;4736135;30;20509;-59
2022/07/14 00:52:50;;;;;;;3.72;1.60;;;;;;;;;;4736135;30;20079;-60
2022/07/14 00:55:18;;;;;;;3.90;2.13;;;;;;;;;;4735902;30;20060;-60
2022/07/14 00:57:46;;;;;;;3.30;1.80;;;;;;;;;;4735825;30;20087;-59
2022/07/14 01:00:15;;;;;;;3.97;1.80;;;;;;;;;;4735877;30;20088;-60
2022/07/14 01:02:45;;;;;;;5.25;2.55;;;;;;;;;;4719974;30;20080;-60
2022/07/14 01:05:12;;;;;;;4.47;2.67;;;;;;;;;;4735810;30;20076;-59
2022/07/14 01:07:40;;;;;;;2.80;2.03;;;;;;;;;;4735861;30;20127;-59
2022/07/14 01:10:09;;;;;;;7.72;2.83;;;;;;;;;;4735514;30;20052;-60
2022/07/14 01:12:38;;;;;;;6.88;2.05;;;;;;;;;;4735848;30;20059;-60
2022/07/14 01:15:06;;;;;;;4.60;2.70;;;;;;;;;;4719591;30;20060;-59
2022/07/14 01:17:34;;;;;;;7.22;2.33;;;;;;;;;;4735851;30;20048;-60
2022/07/14 01:20:01;;;;;;;4.28;1.83;;;;;;;;;;4735420;30;20563;-59
2022/07/14 01:22:28;;;;;;;4.65;1.80;;;;;;;;;;4719618;30;20075;-59
2022/07/14 01:24:56;;;;;;;3.85;1.67;;;;;;;;;;4735751;30;20056;-60
2022/07/14 01:27:23;;;;;;;2.72;1.50;;;;;;;;;;4719866;30;20056;-58
2022/07/14 01:29:50;;;;;;;5.60;2.75;;;;;;;;;;4734548;30;20036;-58
2022/07/14 01:32:18;;;;;;;4.05;1.90;;;;;;;;;;4719605;30;20999;-60
2022/07/14 01:34:45;;;;;;;7.35;2.95;;;;;;;;;;4735311;30;20204;-60
2022/07/14 01:37:12;;;;;;;9.50;3.38;;;;;;;;;;4735288;30;20060;-60
2022/07/14 01:39:42;;;;;;;6.40;3.80;;;;;;;;;;4719279;30;20048;-59
2022/07/14 01:42:09;;;;;;;6.85;2.70;;;;;;;;;;4719310;30;20529;-59
2022/07/14 01:44:37;;;;;;;5.28;2.85;;;;;;;;;;4719292;30;20044;-60
2022/07/14 01:47:05;;;;;;;9.52;3.20;;;;;;;;;;4735183;30;20440;-60
2022/07/14 01:49:32;;;;;;;5.38;2.35;;;;;;;;;;4735093;30;20048;-59
2022/07/14 01:52:05;;;;;;;35.53;17.63;;;;;;;;;;4719174;30;20139;-60
2022/07/14 01:54:34;;;;;;;8.00;4.57;;;;;;;;;;4719091;30;20540;-59
2022/07/14 01:57:02;;;;;;;6.82;2.35;;;;;;;;;;4718998;30;20510;-60
2022/07/14 01:59:31;;;;;;;4.25;2.35;;;;;;;;;;4719172;30;20592;-59
2022/07/14 02:01:59;;;;;;;2.88;1.73;;;;;;;;;;4718803;30;20059;-59
2022/07/14 02:04:27;;;;;;;9.20;2.08;;;;;;;;;;4719226;30;20071;-60
2022/07/14 02:06:55;;;;;;;5.63;1.40;;;;;;;;;;4719252;30;20049;-61
2022/07/14 02:12:34;;;;;;;4.40;1.95;;;;;;;;;;4718890;30;20573;-59
2022/07/14 02:15:03;;;;;;;6.53;1.98;;;;;;;;;;4718954;30;20053;-59
2022/07/14 02:17:32;;;;;;;41.80;21.88;;;;;;;;;;4718643;30;20048;-59
2022/07/14 02:19:59;;;;;;;81.03;40.28;;;;;;;;;;4734355;30;20049;-59
2022/07/14 02:22:27;;;;;;;29.38;15.77;;;;;;;;;;4718774;30;20049;-58
2022/07/14 02:24:56;;;;;;;9.90;4.72;;;;;;;;;;4734802;30;20087;-59
2022/07/14 02:27:23;;;;;;;4.40;2.42;;;;;;;;;;4718749;30;20103;-59
2022/07/14 02:29:52;;;;;;;4.95;2.15;;;;;;;;;;4718495;30;20406;-59
2022/07/14 02:32:19;;;;;;;6.68;2.45;;;;;;;;;;4718409;30;20084;-59
2022/07/14 02:34:46;;;;;;;4.47;2.35;;;;;;;;;;4734212;30;20052;-60
2022/07/14 02:37:14;;;;;;;2.70;1.95;;;;;;;;;;4734345;30;20047;-59
2022/07/14 02:39:41;;;;;;;5.45;2.60;;;;;;;;;;4718469;30;20060;-60
2022/07/14 02:42:08;;;;;;;2.60;1.95;;;;;;;;;;4734200;30;20123;-63
2022/07/14 02:44:37;;;;;;;20.35;9.18;;;;;;;;;;4718341;30;20053;-59
2022/07/14 02:47:04;;;;;;;15.18;8.13;;;;;;;;;;4734160;30;20405;-59
2022/07/14 02:49:31;;;;;;;5.25;3.40;;;;;;;;;;4718427;30;20045;-60
2022/07/14 02:51:58;;;;;;;4.20;2.67;;;;;;;;;;4733919;30;20063;-58
2022/07/14 02:54:27;;;;;;;5.90;2.75;;;;;;;;;;4718510;30;20106;-60
2022/07/14 02:56:55;;;;;;;5.57;2.70;;;;;;;;;;4718483;30;20053;-59
2022/07/14 02:59:22;;;;;;;7.00;2.30;;;;;;;;;;4733739;30;20057;-59
2022/07/14 03:01:51;;;;;;;6.05;1.90;;;;;;;;;;4718113;30;20045;-59
2022/07/14 03:04:21;;;;;;;2.83;2.13;;;;;;;;;;4733756;30;20136;-60
2022/07/14 03:06:52;;;;;;;3.15;1.80;;;;;;;;;;4717870;30;20147;-59
2022/07/14 03:09:22;;;;;;;4.20;1.75;;;;;;;;;;4733896;30;20522;-59
2022/07/14 03:11:50;;;;;;;8.73;5.07;;;;;;;;;;4733726;30;20094;-59
2022/07/14 03:14:18;;;;;;;5.60;3.40;;;;;;;;;;4717975;30;20053;-59
2022/07/14 03:16:46;;;;;;;4.10;2.85;;;;;;;;;;4733704;30;20051;-60
2022/07/14 03:19:14;;;;;;;5.68;3.30;;;;;;;;;;4733913;30;20045;-59
2022/07/14 03:21:43;;;;;;;3.17;1.77;;;;;;;;;;4717985;30;20053;-59
2022/07/14 03:24:13;;;;;;;5.95;2.17;;;;;;;;;;4717759;30;20126;-59
2022/07/14 03:26:41;;;;;;;5.03;2.15;;;;;;;;;;4717085;30;20189;-59
2022/07/14 03:29:09;;;;;;;4.65;1.70;;;;;;;;;;4718133;30;20080;-59
2022/07/14 03:31:36;;;;;;;3.33;1.40;;;;;;;;;;4718029;30;20080;-59
2022/07/14 03:34:08;;;;;;;84.30;54.08;;;;;;;;;;4717732;30;20052;-58
2022/07/14 03:36:38;;;;;;;5.25;3.33;;;;;;;;;;4717831;30;20088;-59
2022/07/14 03:39:14;;;;;;;8.40;1.65;;;;;;;;;;4717833;30;20048;-60
2022/07/14 03:41:42;;;;;;;2.35;1.20;;;;;;;;;;4721765;30;20518;-60
2022/07/14 03:44:10;;;;;;;5.25;1.30;;;;;;;;;;4733488;30;20162;-60
2022/07/14 03:46:38;;;;;;;2.92;1.20;;;;;;;;;;4735315;30;20509;-59
2022/07/14 03:49:12;;;;;;;2.53;1.27;;;;;;;;;;4750863;30;20417;-59
2022/07/14 03:51:41;;;;;;;3.50;1.27;;;;;;;;;;4735224;30;20044;-59
2022/07/14 03:54:10;;;;;;;4.28;1.13;;;;;;;;;;4738201;30;20513;-59
2022/07/14 03:56:41;;;;;;;2.70;1.25;;;;;;;;;;4754721;30;20044;-60
2022/07/14 03:59:10;;;;;;;7.25;2.80;;;;;;;;;;4754407;30;20517;-58
2022/07/14 04:01:38;;;;;;;2.33;1.42;;;;;;;;;;4738644;30;20048;-60
2022/07/14 04:04:06;;;;;;;3.28;1.48;;;;;;;;;;4738458;30;20064;-60
2022/07/14 04:06:33;;;;;;;3.88;1.17;;;;;;;;;;4738624;30;20056;-60
2022/07/14 04:09:03;;;;;;;4.50;1.20;;;;;;;;;;4738470;30;20051;-60
2022/07/14 04:11:33;;;;;;;5.25;1.08;;;;;;;;;;4738527;30;20052;-59
2022/07/14 04:14:01;;;;;;;3.63;1.15;;;;;;;;;;4754192;30;20044;-59
2022/07/14 04:16:29;;;;;;;3.42;1.10;;;;;;;;;;4738139;30;20139;-59
2022/07/14 04:18:58;;;;;;;2.05;1.10;;;;;;;;;;4738600;30;20513;-59
2022/07/14 04:21:25;;;;;;;2.10;1.25;;;;;;;;;;4738496;30;20052;-59
2022/07/14 04:23:53;;;;;;;7.57;3.63;;;;;;;;;;4738212;30;20075;-58
2022/07/14 04:26:20;;;;;;;2.85;1.63;;;;;;;;;;4738086;30;20048;-59
2022/07/14 04:28:47;;;;;;;2.95;1.10;;;;;;;;;;4738110;30;20080;-59
2022/07/14 04:31:15;;;;;;;2.25;1.08;;;;;;;;;;4739929;30;20063;-59
2022/07/14 04:33:43;;;;;;;2.50;1.20;;;;;;;;;;4720577;30;20057;-59
2022/07/14 04:36:12;;;;;;;3.35;1.10;;;;;;;;;;4736217;30;20048;-59
2022/07/14 04:38:40;;;;;;;2.08;1.15;;;;;;;;;;4720568;30;20044;-60
2022/07/14 04:41:07;;;;;;;3.20;1.42;;;;;;;;;;4736292;30;20049;-59
2022/07/14 04:43:38;;;;;;;3.65;1.25;;;;;;;;;;4721093;30;20060;-59
2022/07/14 04:46:08;;;;;;;2.33;1.48;;;;;;;;;;4720154;30;20143;-59
2022/07/14 04:54:17;;;;;;;5.75;2.88;;;;;;;;;;4719991;30;20087;-59
2022/07/14 04:56:52;;;;;;;3.03;0.93;;;;;;;;;;4720244;30;20053;-60
2022/07/14 04:59:34;;;;;;;2.30;1.05;;;;;;;;;;4719945;30;20536;-59
2022/07/14 05:02:01;;;;;;;6.60;1.05;;;;;;;;;;4719980;30;20106;-59
2022/07/14 05:04:30;;;;;;;1.77;1.05;;;;;;;;;;4734572;30;20399;-59
2022/07/14 05:07:00;;;;;;;3.38;1.10;;;;;;;;;;4720036;30;20510;-59
2022/07/14 05:09:34;;;;;;;1.80;0.80;;;;;;;;;;4720153;30;20065;-60
2022/07/14 05:12:04;;;;;;;2.45;1.00;;;;;;;;;;4719830;30;20057;-59
2022/07/14 05:14:32;;;;;;;4.60;1.15;;;;;;;;;;4719928;30;20634;-59
2022/07/14 05:17:02;;;;;;;1.30;0.80;;;;;;;;;;4719878;30;20060;-59
2022/07/14 05:19:51;;;;;;;1.55;0.88;;;;;;;;;;4719798;30;20071;-59
2022/07/14 05:22:19;;;;;;;2.83;1.60;;;;;;;;;;4719843;30;20057;-57
2022/07/14 05:24:46;;;;;;;3.00;1.20;;;;;;;;;;4719714;30;20052;-59
2022/07/14 05:27:13;;;;;;;1.73;0.90;;;;;;;;;;4719729;30;20079;-58
2022/07/14 05:29:41;;;;;;;3.55;0.77;;;;;;;;;;4735439;30;20052;-58
2022/07/14 05:32:09;;;;;;;1.58;0.90;;;;;;;;;;4719592;30;20383;-59
2022/07/14 05:34:42;;;;;;;2.58;0.98;;;;;;;;;;4719778;30;20060;-58
2022/07/14 05:37:13;;;;;;;2.83;0.88;;;;;;;;;;4719513;30;20070;-58
2022/07/14 05:39:41;;;;;;;6.25;0.90;;;;;;;;;;4735084;30;20036;-59
2022/07/14 05:42:08;;;;;;;3.35;0.88;;;;;;;;;;4719448;30;20503;-59
2022/07/14 05:44:36;;;;;;;2.08;0.80;;;;;;;;;;4735266;30;20236;-58
2022/07/14 05:47:05;;;;;;;2.63;1.00;;;;;;;;;;4719482;30;20560;-59
2022/07/14 05:49:32;;;;;;;1.98;0.93;;;;;;;;;;4719358;30;20115;-58
2022/07/14 05:52:02;;;;;;;1.90;0.80;;;;;;;;;;4719210;30;20048;-59
2022/07/14 05:54:31;;;;;;;3.53;0.70;;;;;;;;;;4719254;30;20053;-59
2022/07/14 05:56:59;;;;;;;5.53;0.88;;;;;;;;;;4719427;30;20049;-59
2022/07/14 05:59:26;;;;;;;4.78;0.70;;;;;;;;;;4734837;30;20437;-59
2022/07/14 06:02:12;;;;;;;2.85;0.70;;;;;;;;;;4719198;30;20388;-59
2022/07/14 06:04:40;;;;;;;5.45;0.80;;;;;;;;;;4718847;30;20128;-59
2022/07/14 06:07:10;;;;;;;1.33;0.60;;;;;;;;;;4718924;30;20076;-59
2022/07/14 06:09:41;;;;;;;3.60;0.70;;;;;;;;;;4734746;30;20476;-59
2022/07/14 06:12:12;;;;;;;4.50;0.88;;;;;;;;;;4734880;30;20051;-59
2022/07/14 06:14:41;;;;;;;1.52;0.80;;;;;;;;;;4718926;30;20143;-59
2022/07/14 06:17:10;;;;;;;4.57;0.70;;;;;;;;;;4718596;30;20439;-58
2022/07/14 06:19:39;;;;;;;1.63;0.80;;;;;;;;;;4718992;30;20057;-58
2022/07/14 06:22:06;;;;;;;1.27;0.70;;;;;;;;;;4734344;30;20057;-59
2022/07/14 06:24:39;;;;;;;2.28;0.68;;;;;;;;;;4718974;30;20044;-59
2022/07/14 06:27:16;;;;;;;3.10;0.82;;;;;;;;;;4718837;30;20056;-59
2022/07/14 06:29:45;;;;;;;4.00;0.80;;;;;;;;;;4718482;30;20048;-59
2022/07/14 06:32:13;;;;;;;1.48;0.60;;;;;;;;;;4718608;30;20052;-59
2022/07/14 06:34:41;;;;;;;5.07;0.90;;;;;;;;;;4718673;30;20049;-59
2022/07/14 06:37:29;;;;;;;1.95;0.85;;;;;;;;;;4733548;30;20513;-59
2022/07/14 06:39:57;;;;;;;0.93;0.50;;;;;;;;;;4718732;30;20053;-59
2022/07/14 06:42:24;;;;;;;1.20;0.50;;;;;;;;;;4718437;30;20048;-60
2022/07/14 06:45:12;;;;;;;1.05;0.52;;;;;;;;;;4718551;30;20052;-59
2022/07/14 06:47:40;;;;;;;1.75;0.60;;;;;;;;;;4718572;30;20061;-60
2022/07/14 06:50:11;;;;;;;1.08;0.50;;;;;;;;;;4734075;30;20513;-59
2022/07/14 06:52:38;;;;;;;2.60;0.60;;;;;;;;;;4718217;30;20049;-59
2022/07/14 06:55:06;;;;;;;3.97;0.70;;;;;;;;;;4734262;30;20474;-58
2022/07/14 06:57:34;;;;;;;1.85;0.70;;;;;;;;;;4733935;30;20091;-59
2022/07/14 07:00:03;;;;;;;3.58;0.80;;;;;;;;;;4733884;30;20132;-59
2022/07/14 07:02:31;;;;;;;3.33;0.73;;;;;;;;;;4733867;30;20047;-59
2022/07/14 07:07:44;;;;;;;1.58;0.57;;;;;;;;;;4734072;30;20053;-59
2022/07/14 07:10:13;;;;;;;2.13;0.57;;;;;;;;;;4733729;30;20041;-59
2022/07/14 07:12:40;;;;;;;2.83;0.50;;;;;;;;;;4734110;30;20048;-59
2022/07/14 07:15:08;;;;;;;2.80;0.63;;;;;;;;;;4733785;30;20051;-59
2022/07/14 07:17:35;;;;;;;1.35;0.68;;;;;;;;;;4733672;30;20534;-59
2022/07/14 07:20:03;;;;;;;1.60;0.57;;;;;;;;;;4733511;30;20102;-60
2022/07/14 07:22:30;;;;;;;1.25;0.60;;;;;;;;;;4733730;30;20132;-60
2022/07/14 07:24:57;;;;;;;3.05;0.60;;;;;;;;;;4734017;30;20055;-60
2022/07/14 07:27:25;;;;;;;5.10;0.73;;;;;;;;;;4733475;30;20461;-59
2022/07/14 07:29:53;;;;;;;2.30;0.80;;;;;;;;;;4733711;30;20389;-59
2022/07/14 07:32:21;;;;;;;0.73;0.50;;;;;;;;;;4733525;30;20053;-60
2022/07/14 07:34:48;;;;;;;3.13;0.50;;;;;;;;;;4733935;30;20414;-60
2022/07/14 07:37:15;;;;;;;1.50;0.70;;;;;;;;;;4733741;30;20087;-60
2022/07/14 07:39:52;;;;;;;1.67;0.60;;;;;;;;;;4733550;30;20119;-60
2022/07/14 07:42:20;;;;;;;3.92;0.60;;;;;;;;;;4733742;30;20055;-60
2022/07/14 07:44:49;;;;;;;2.60;0.60;;;;;;;;;;4733669;30;20536;-59
2022/07/14 07:47:17;;;;;;;3.28;0.80;;;;;;;;;;4733672;30;20076;-60
2022/07/14 07:49:44;;;;;;;2.45;0.70;;;;;;;;;;4733753;30;20076;-59
2022/07/14 07:52:11;;;;;;;2.63;0.80;;;;;;;;;;4733639;30;20418;-60
2022/07/14 07:54:38;;;;;;;2.40;0.65;;;;;;;;;;4733680;30;20076;-60
2022/07/14 07:57:26;;;;;;;9.27;3.58;;;;;;;;;;4726330;30;20493;-59
2022/07/14 07:59:53;;;;;;;2.03;0.98;;;;;;;;;;4733293;30;20056;-60
2022/07/14 08:02:24;;;;;;;2.55;0.70;;;;;;;;;;4750516;30;20163;-60
2022/07/14 08:04:55;;;;;;;2.25;0.70;;;;;;;;;;4751244;30;20414;-60
2022/07/14 08:07:22;;;;;;;3.13;0.65;;;;;;;;;;4751040;30;20069;-59
2022/07/14 08:09:49;;;;;;;2.00;0.60;;;;;;;;;;4750888;30;20606;-59
2022/07/14 08:12:27;;;;;;;2.80;0.52;;;;;;;;;;4751037;30;20123;-60
2022/07/14 08:14:55;;;;;;;7.40;3.53;;;;;;;;;;4751314;30;20502;-60
2022/07/14 08:17:22;;;;;;;5.35;1.23;;;;;;;;;;4750879;30;20048;-61
2022/07/14 08:19:50;;;;;;;0.70;0.50;;;;;;;;;;4750959;30;20102;-60
2022/07/14 08:22:27;;;;;;;3.58;1.10;;;;;;;;;;4750800;30;20052;-59
2022/07/14 08:24:55;;;;;;;1.75;0.75;;;;;;;;;;4751173;30;20103;-60
2022/07/14 08:27:23;;;;;;;1.00;0.60;;;;;;;;;;4750858;30;20417;-60
2022/07/14 08:29:50;;;;;;;0.80;0.50;;;;;;;;;;4747088;30;20044;-60
2022/07/14 08:32:45;;;;;;;2.03;0.60;;;;;;;;;;4733271;30;20094;-60
2022/07/14 08:35:16;;;;;;;5.80;2.53;;;;;;;;;;4733344;30;20471;-59
2022/07/14 08:37:44;;;;;;;3.10;0.82;;;;;;;;;;4733020;30;20049;-59
2022/07/14 08:40:13;;;;;;;1.63;0.70;;;;;;;;;;4736012;30;20106;-59
2022/07/14 08:42:48;;;;;;;1.63;0.65;;;;;;;;;;4736275;30;20052;-59
2022/07/14 08:45:19;;;;;;;3.00;0.85;;;;;;;;;;4736101;30;20506;-60
2022/07/14 08:47:48;;;;;;;1.40;0.70;;;;;;;;;;4721069;30;20053;-60
2022/07/14 08:50:22;;;;;;;1.48;0.60;;;;;;;;;;4735030;30;20119;-60
2022/07/14 08:52:50;;;;;;;2.20;0.70;;;;;;;;;;4735670;30;20052;-59
2022/07/14 08:55:20;;;;;;;2.17;0.90;;;;;;;;;;4735144;30;20041;-58
2022/07/14 08:57:47;;;;;;;1.52;0.50;;;;;;;;;;4719607;30;20572;-59
2022/07/14 09:00:17;;;;;;;1.23;0.70;;;;;;;;;;4735625;30;20090;-59
2022/07/14 09:02:52;;;;;;;3.72;0.80;;;;;;;;;;4734272;30;20048;-59
2022/07/14 09:05:41;;;;;;;1.88;0.70;;;;;;;;;;4735102;30;20044;-59
2022/07/14 09:08:11;;;;;;;2.40;0.80;;;;;;;;;;4734965;30;20562;-60
2022/07/14 09:10:40;;;;;;;1.35;0.85;;;;;;;;;;4733736;30;20044;-58
2022/07/14 09:13:31;;;;;;;1.77;0.73;;;;;;;;;;4735136;30;20414;-59
2022/07/14 09:16:20;;;;;;;1.43;0.60;;;;;;;;;;4734146;30;20123;-60
2022/07/14 09:19:03;;;;;;;1.50;0.80;;;;;;;;;;4739277;30;20288;-60
2022/07/14 09:21:30;;;;;;;2.15;0.60;;;;;;;;;;4733860;30;20040;-58
2022/07/14 09:23:58;;;;;;;1.45;0.57;;;;;;;;;;4735096;30;20477;-57
2022/07/14 09:26:25;;;;;;;1.40;0.65;;;;;;;;;;4735102;30;20040;-59
2022/07/14 09:28:53;;;;;;;1.48;0.50;;;;;;;;;;4735017;30;20052;-59
2022/07/14 09:31:30;;;;;;;0.68;0.50;;;;;;;;;;4734667;30;20464;-59
2022/07/14 09:34:01;;;;;;;1.35;0.47;;;;;;;;;;4734978;30;20041;-59
2022/07/14 09:36:30;;;;;;;4.35;1.25;;;;;;;;;;4728153;30;20056;-59
2022/07/14 09:39:00;;;;;;;3.47;0.75;;;;;;;;;;4734828;30;20044;-59
2022/07/14 09:41:29;;;;;;;1.25;0.70;;;;;;;;;;4734667;30;20561;-59
2022/07/14 09:44:19;;;;;;;1.30;0.65;;;;;;;;;;4734821;30;20140;-59
2022/07/14 09:46:53;;;;;;;2.78;0.65;;;;;;;;;;4730296;30;20117;-58
2022/07/14 09:49:23;;;;;;;2.28;0.70;;;;;;;;;;4734480;30;20064;-59
2022/07/14 09:51:58;;;;;;;0.63;0.47;;;;;;;;;;4733183;30;20036;-58
2022/07/14 09:54:45;;;;;;;3.35;0.50;;;;;;;;;;4734737;30;20069;-59
2022/07/14 09:57:12;;;;;;;3.72;0.60;;;;;;;;;;4734854;30;20064;-58
2022/07/14 09:59:47;;;;;;;16.10;10.25;;;;;;;;;;4733934;30;20111;-59
2022/07/14 10:02:27;;;;;;;2.83;0.80;;;;;;;;;;4734117;30;20090;-60
2022/07/14 10:05:01;;;;;;;1.50;0.70;;;;;;;;;;4734023;30;20099;-59
2022/07/14 10:07:35;;;;;;;2.55;0.60;;;;;;;;;;4728949;30;20583;-59
2022/07/14 10:10:11;;;;;;;2.33;0.95;;;;;;;;;;4734085;30;20102;-59
2022/07/14 10:12:41;;;;;;;1.50;0.60;;;;;;;;;;4734697;30;20080;-60
2022/07/14 10:15:13;;;;;;;1.83;0.68;;;;;;;;;;4734729;30;20048;-60
2022/07/14 10:17:42;;;;;;;2.17;0.85;;;;;;;;;;4734601;30;20084;-59
2022/07/14 10:20:12;;;;;;;16.15;8.65;;;;;;;;;;4734541;30;20106;-59
2022/07/14 10:22:43;;;;;;;2.65;0.82;;;;;;;;;;4734550;30;20510;-59
2022/07/14 10:25:11;;;;;;;7.78;0.70;;;;;;;;;;4730115;30;20142;-59
2022/07/14 10:27:43;;;;;;;1.58;0.60;;;;;;;;;;4731740;30;20127;-60
2022/07/14 10:30:11;;;;;;;6.40;1.00;;;;;;;;;;4728647;30;20123;-60
2022/07/14 10:33:08;;;;;;;1.80;0.60;;;;;;;;;;4731022;30;20063;-58
2022/07/14 10:36:16;;;;;;;1.48;0.82;;;;;;;;;;4726061;30;20053;-58
2022/07/14 10:38:52;;;;;;;3.25;0.90;;;;;;;;;;4721884;30;20052;-58
2022/07/14 10:41:46;;;;;;;1.83;0.50;;;;;;;;;;4730267;30;20138;-60
2022/07/14 10:44:22;;;;;;;3.40;0.90;;;;;;;;;;4731342;30;20048;-60
2022/07/14 10:47:04;;;;;;;3.17;0.80;;;;;;;;;;4731608;30;20434;-60
2022/07/14 10:50:00;;;;;;;4.28;0.63;;;;;;;;;;4731813;30;20075;-62
2022/07/14 10:52:31;;;;;;;6.32;1.02;;;;;;;;;;4729768;30;20056;-59
2022/07/14 10:55:27;;;;;;;4.18;1.13;;;;;;;;;;4728376;30;20060;-60
2022/07/14 10:58:03;;;;;;;2.22;0.70;;;;;;;;;;4707981;30;20123;-59
2022/07/14 11:00:40;;;;;;;2.35;1.15;;;;;;;;;;4731660;30;20052;-60
2022/07/14 11:03:48;;;;;;;1.63;0.77;;;;;;;;;;4728705;30;20064;-60
2022/07/14 11:06:17;;;;;;;5.57;0.90;;;;;;;;;;4728639;30;20477;-62
2022/07/14 11:09:18;;;;;;;2.47;0.90;;;;;;;;;;4727680;30;20044;-59
2022/07/14 11:12:07;;;;;;;2.13;0.98;;;;;;;;;;4729896;30;20055;-60
2022/07/14 11:14:40;;;;;;;4.82;1.02;;;;;;;;;;4727419;30;20053;-60
2022/07/14 11:17:36;;;;;;;29.25;8.07;;;;;;;;;;4731464;30;20088;-59
2022/07/14 11:20:08;;;;;;;7.80;2.83;;;;;;;;;;4729341;30;20049;-60
2022/07/14 11:22:37;;;;;;;2.63;0.82;;;;;;;;;;4729484;30;20124;-59
2022/07/14 11:25:05;;;;;;;61.05;32.60;;;;;;;;;;4731266;30;20045;-58
2022/07/14 11:27:43;;;;;;;21.05;12.32;;;;;;;;;;4731144;30;20049;-59
2022/07/14 11:30:20;;;;;;;2.60;0.80;;;;;;;;;;4727495;30;20410;-60
2022/07/14 11:33:31;;;;;;;2.05;0.68;;;;;;;;;;4729533;30;20063;-60
2022/07/14 11:36:20;;;;;;;3.38;0.90;;;;;;;;;;4721824;30;20500;-61
2022/07/14 11:39:16;;;;;;;2.05;0.90;;;;;;;;;;4729554;30;20529;-61
2022/07/14 11:41:45;;;;;;;1.25;0.50;;;;;;;;;;4724831;30;20564;-61
2022/07/14 11:44:39;;;;;;;1.52;0.60;;;;;;;;;;4730229;30;20067;-61
2022/07/14 11:47:29;;;;;;;2.75;0.60;;;;;;;;;;4725886;30;20180;-61
2022/07/14 11:50:07;;;;;;;2.30;0.63;;;;;;;;;;4731254;30;20127;-61
2022/07/14 11:52:40;;;;;;;4.70;0.60;;;;;;;;;;4730237;30;20049;-62
2022/07/14 11:55:11;;;;;;;2.25;0.70;;;;;;;;;;4730066;30;20456;-59
2022/07/14 11:57:50;;;;;;;0.98;0.45;;;;;;;;;;4730504;30;20084;-60
2022/07/14 12:00:17;;;;;;;0.95;0.60;;;;;;;;;;4730592;30;20045;-60
2022/07/14 12:02:57;;;;;;;2.92;0.70;;;;;;;;;;4731142;30;20453;-61
2022/07/14 12:05:26;;;;;;;2.35;0.52;;;;;;;;;;4728928;30;20076;-60
2022/07/14 12:07:54;;;;;;;1.83;0.50;;;;;;;;;;4730823;30;20061;-60
2022/07/14 12:10:42;;;;;;;1.73;0.60;;;;;;;;;;4731039;30;20857;-61
2022/07/14 12:13:09;;;;;;;2.20;0.70;;;;;;;;;;4731337;30;20573;-62
2022/07/14 12:15:37;;;;;;;0.50;0.50;;;;;;;;;;4732062;30;20052;-60
2022/07/14 12:18:06;;;;;;;9.32;1.25;;;;;;;;;;4735687;30;20053;-61
2022/07/14 12:20:39;;;;;;;2.90;0.70;;;;;;;;;;4736768;30;20044;-57
2022/07/14 12:23:07;;;;;;;1.40;0.60;;;;;;;;;;4736884;30;20129;-59
2022/07/14 12:25:37;;;;;;;0.82;0.40;;;;;;;;;;4736605;30;20502;-60
2022/07/14 12:28:07;;;;;;;1.15;0.50;;;;;;;;;;4736541;30;20083;-60
2022/07/14 12:30:50;;;;;;;1.45;0.50;;;;;;;;;;4736532;30;20480;-61
2022/07/14 12:33:22;;;;;;;;;;;;;;;;;;4736866;30;20481;-60
2022/07/14 12:35:54;;;;;;;2.25;0.75;;;;;;;;;;4736322;30;19926;-61
2022/07/14 12:38:23;;;;;;;1.23;0.47;;;;;;;;;;4735954;30;20139;-60
2022/07/14 12:40:55;;;;;;;0.77;0.40;;;;;;;;;;4736024;30;20087;-60
2022/07/14 12:43:32;;;;;;;4.32;0.50;;;;;;;;;;4736606;30;20048;-60
2022/07/14 12:46:03;;;;;;;0.68;0.47;;;;;;;;;;4736187;30;20181;-60
2022/07/14 12:48:49;;;;;;;1.65;0.50;;;;;;;;;;4736342;30;20110;-60
2022/07/14 12:51:25;;;;;;;3.15;0.50;;;;;;;;;;4736342;30;20083;-60
2022/07/14 12:54:15;;;;;;;0.70;0.35;;;;;;;;;;4735778;30;20051;-60
2022/07/14 12:57:00;;;;;;;3.35;0.77;;;;;;;;;;4736541;30;20052;-60
2022/07/14 12:59:32;;;;;;;1.85;0.45;;;;;;;;;;4735967;30;20122;-59
2022/07/14 13:02:00;;;;;;;;;;;;;;;;;;4736210;30;20048;-60
2022/07/14 13:04:34;;;;;;;2.38;0.57;;;;;;;;;;4736221;30;20388;-60
2022/07/14 13:07:24;;;;;;;3.50;0.65;;;;;;;;;;4735979;30;20472;-59
2022/07/14 13:10:11;;;;;;;1.90;0.60;;;;;;;;;;4735583;30;20040;-64
2022/07/14 13:12:45;;;;;;;2.35;0.60;;;;;;;;;;4735937;30;20052;-60
2022/07/14 13:15:16;;;;;;;3.35;0.55;;;;;;;;;;4735736;30;20067;-60
2022/07/14 13:17:53;;;;;;;3.80;0.70;;;;;;;;;;4735768;30;20059;-61
2022/07/14 13:20:46;;;;;;;1.95;0.52;;;;;;;;;;4735457;30;20131;-59
2022/07/14 13:23:23;;;;;;;2.88;0.63;;;;;;;;;;4735490;30;20120;-60
2022/07/14 13:25:51;;;;;;;3.13;0.60;;;;;;;;;;4734706;30;20052;-59
2022/07/14 13:28:29;;;;;;;1.58;0.47;;;;;;;;;;4719677;30;20052;-60
2022/07/14 13:30:56;;;;;;;3.95;0.60;;;;;;;;;;4735566;30;20049;-59
2022/07/14 13:33:24;;;;;;;23.42;16.88;;;;;;;;;;4736286;30;20048;-59
2022/07/14 13:35:57;;;;;;;2.30;1.23;;;;;;;;;;4735286;30;20049;-60
2022/07/14 13:38:24;;;;;;;0.82;0.50;;;;;;;;;;4735097;30;20123;-60
2022/07/14 13:40:51;;;;;;;2.17;0.60;;;;;;;;;;4735276;30;20071;-61
2022/07/14 13:43:20;;;;;;;0.60;0.40;;;;;;;;;;4735129;30;20045;-60
2022/07/14 13:45:51;;;;;;;1.65;0.50;;;;;;;;;;4735108;30;20116;-59
2022/07/14 13:48:19;;;;;;;4.00;0.75;;;;;;;;;;4735051;30;20126;-60
2022/07/14 13:53:33;;;;;;;1.40;0.47;;;;;;;;;;4734897;30;20045;-60
2022/07/14 13:56:01;;;;;;;0.73;0.40;;;;;;;;;;4734471;30;20055;-61
2022/07/14 13:58:28;;;;;;;1.67;0.52;;;;;;;;;;4733716;30;20056;-60
2022/07/14 14:00:56;;;;;;;3.05;0.47;;;;;;;;;;4733422;30;20446;-59
2022/07/14 14:03:23;;;;;;;1.92;0.30;;;;;;;;;;4733364;30;20510;-61
2022/07/14 14:05:55;;;;;;;29.33;15.95;;;;;;;;;;4733337;30;20057;-60
2022/07/14 14:08:28;;;;;;;2.15;1.05;;;;;;;;;;4733015;30;20163;-61
2022/07/14 14:10:56;;;;;;;0.68;0.40;;;;;;;;;;4733444;30;20071;-60
2022/07/14 14:13:27;;;;;;;1.02;0.50;;;;;;;;;;4733303;30;20049;-61
2022/07/14 14:15:56;;;;;;;0.88;0.60;;;;;;;;;;4733066;30;20049;-61
2022/07/14 14:18:24;;;;;;;1.60;0.70;;;;;;;;;;4733301;30;20553;-59
2022/07/14 14:20:52;;;;;;;1.20;0.60;;;;;;;;;;4733334;30;20072;-60
2022/07/14 14:23:19;;;;;;;2.58;0.82;;;;;;;;;;4733334;30;20049;-59
2022/07/14 14:25:46;;;;;;;1.48;0.80;;;;;;;;;;4733518;30;20123;-60
2022/07/14 14:28:14;;;;;;;2.40;0.70;;;;;;;;;;4732752;30;20052;-60
2022/07/14 14:30:42;;;;;;;2.25;0.65;;;;;;;;;;4732227;30;20045;-61
2022/07/14 14:33:09;;;;;;;4.07;0.60;;;;;;;;;;4732961;30;20048;-61
2022/07/14 14:35:36;;;;;;;1.23;0.57;;;;;;;;;;4732986;30;20584;-61
2022/07/14 14:38:06;;;;;;;1.50;0.63;;;;;;;;;;4732584;30;20476;-61
2022/07/14 14:40:37;;;;;;;2.55;0.60;;;;;;;;;;4732780;30;20045;-61
2022/07/14 14:43:05;;;;;;;4.03;0.98;;;;;;;;;;4732867;30;20083;-61
2022/07/14 14:45:34;;;;;;;2.60;0.50;;;;;;;;;;4732564;30;20581;-60
2022/07/14 14:48:01;;;;;;;1.30;0.47;;;;;;;;;;4716956;30;20521;-60
2022/07/14 14:50:28;;;;;;;5.07;1.77;;;;;;;;;;4733011;30;20045;-61
2022/07/14 14:52:55;;;;;;;4.43;1.15;;;;;;;;;;4732817;30;20068;-61
2022/07/14 14:55:23;;;;;;;0.77;0.57;;;;;;;;;;4732713;30;20048;-61
2022/07/14 14:57:50;;;;;;;1.67;0.50;;;;;;;;;;4732371;30;20052;-61
2022/07/14 15:00:18;;;;;;;2.25;0.50;;;;;;;;;;4732497;30;20476;-61
2022/07/14 15:02:47;;;;;;;2.13;0.77;;;;;;;;;;4732621;30;20547;-61
2022/07/14 15:05:14;;;;;;;1.33;0.60;;;;;;;;;;4732469;30;20098;-60
2022/07/14 15:07:43;;;;;;;3.25;1.02;;;;;;;;;;4732353;30;20049;-61
2022/07/14 15:10:12;;;;;;;3.45;0.70;;;;;;;;;;4732449;30;20114;-60
2022/07/14 15:12:45;;;;;;;2.40;0.77;;;;;;;;;;4732436;30;20041;-61
2022/07/14 15:15:13;;;;;;;2.22;0.50;;;;;;;;;;4732643;30;20045;-61
2022/07/14 15:17:41;;;;;;;1.17;0.70;;;;;;;;;;4732181;30;20049;-61
2022/07/14 15:20:09;;;;;;;1.85;0.85;;;;;;;;;;4732826;30;20049;-61
2022/07/14 15:22:37;;;;;;;4.90;0.63;;;;;;;;;;4733562;30;20056;-62